Time;durP1;ratioP1;P1;durP2;ratioP2;P2;SDS_P1;SDS_P2;PMS_P1;PMS_P2;Temp;Humidity;BMP_temperature;BMP_pressure;BME280_temperature;BME280_humidity;BME280_pressure;Samples;Min_cycle;Max_cycle;Signal;HPM_P1;HPM_P2
2022/10/20 00:02:14;;;;;;;0.20;0.20;;;;;;;;;;5009136;28;20178;-76
2022/10/20 00:04:39;;;;;;;0.20;0.20;;;;;;;;;;5007610;28;20182;-76
2022/10/20 00:07:05;;;;;;;0.20;0.20;;;;;;;;;;5008872;28;20204;-77
2022/10/20 00:09:30;;;;;;;0.13;0.13;;;;;;;;;;5007869;28;20206;-77
2022/10/20 00:11:55;;;;;;;0.10;0.10;;;;;;;;;;5006148;28;20180;-76
2022/10/20 00:14:20;;;;;;;0.20;0.20;;;;;;;;;;5004953;28;20229;-76
2022/10/20 00:16:45;;;;;;;0.20;0.20;;;;;;;;;;5003265;28;20187;-78
2022/10/20 00:19:11;;;;;;;0.13;0.13;;;;;;;;;;5008081;28;20237;-78
2022/10/20 00:21:36;;;;;;;0.20;0.20;;;;;;;;;;5008737;28;20171;-76
2022/10/20 00:24:02;;;;;;;0.20;0.20;;;;;;;;;;5006951;28;20663;-77
2022/10/20 00:26:28;;;;;;;0.10;0.10;;;;;;;;;;5005323;28;20664;-77
2022/10/20 00:28:54;;;;;;;0.20;0.20;;;;;;;;;;5018417;28;20206;-76
2022/10/20 00:31:19;;;;;;;0.20;0.20;;;;;;;;;;5004908;28;20231;-76
2022/10/20 00:33:45;;;;;;;0.13;0.13;;;;;;;;;;5004103;28;20167;-77
2022/10/20 00:36:12;;;;;;;0.20;0.20;;;;;;;;;;5006861;28;20178;-77
2022/10/20 00:38:37;;;;;;;0.20;0.20;;;;;;;;;;5007311;28;20606;-77
2022/10/20 00:41:03;;;;;;;0.20;0.20;;;;;;;;;;5008943;28;20191;-76
2022/10/20 00:43:47;;;;;;;0.17;0.17;;;;;;;;;;5005340;28;20825;-77
2022/10/20 00:46:13;;;;;;;0.20;0.20;;;;;;;;;;5017028;28;20749;-77
2022/10/20 00:48:39;;;;;;;0.20;0.20;;;;;;;;;;5007231;28;20199;-78
2022/10/20 00:51:05;;;;;;;0.20;0.20;;;;;;;;;;5006944;28;20616;-78
2022/10/20 00:53:30;;;;;;;0.20;0.20;;;;;;;;;;5006196;28;20234;-78
2022/10/20 00:55:56;;;;;;;0.20;0.20;;;;;;;;;;5008250;28;20176;-78
2022/10/20 00:58:22;;;;;;;0.20;0.20;;;;;;;;;;5007707;28;20202;-78
2022/10/20 01:00:49;;;;;;;0.20;0.20;;;;;;;;;;5008193;28;20254;-78
2022/10/20 01:03:16;;;;;;;0.20;0.20;;;;;;;;;;5008371;28;20186;-78
2022/10/20 01:05:41;;;;;;;0.20;0.20;;;;;;;;;;5007788;28;20183;-77
2022/10/20 01:08:07;;;;;;;0.20;0.20;;;;;;;;;;5006260;28;20264;-77
2022/10/20 01:10:38;;;;;;;0.20;0.20;;;;;;;;;;5006701;28;20605;-81
2022/10/20 01:13:11;;;;;;;0.20;0.20;;;;;;;;;;5003843;28;20175;-78
2022/10/20 01:15:58;;;;;;;0.10;0.10;;;;;;;;;;5005153;28;20182;-78
2022/10/20 01:18:37;;;;;;;0.20;0.20;;;;;;;;;;5000752;28;20187;-77
2022/10/20 01:21:18;;;;;;;0.20;0.20;;;;;;;;;;5007803;28;20175;-75
2022/10/20 01:23:47;;;;;;;0.20;0.20;;;;;;;;;;5006791;28;20179;-76
2022/10/20 01:26:15;;;;;;;0.20;0.20;;;;;;;;;;5004693;28;20274;-76
2022/10/20 01:28:49;;;;;;;0.20;0.20;;;;;;;;;;5020203;28;20337;-76
2022/10/20 01:31:28;;;;;;;0.20;0.20;;;;;;;;;;5003261;28;20198;-76
2022/10/20 01:33:58;;;;;;;0.20;0.20;;;;;;;;;;5012423;28;20167;-76
2022/10/20 01:36:32;;;;;;;0.20;0.20;;;;;;;;;;5008169;28;20206;-76
2022/10/20 01:39:21;;;;;;;0.20;0.20;;;;;;;;;;5005331;28;20175;-75
2022/10/20 01:41:55;;;;;;;0.13;0.13;;;;;;;;;;5004816;28;20184;-75
2022/10/20 01:44:23;;;;;;;0.20;0.20;;;;;;;;;;5008959;28;20816;-76
2022/10/20 01:46:48;;;;;;;0.20;0.20;;;;;;;;;;5002449;28;20211;-78
2022/10/20 01:49:13;;;;;;;0.20;0.20;;;;;;;;;;5006616;28;20191;-78
2022/10/20 01:51:39;;;;;;;0.20;0.20;;;;;;;;;;5007722;28;20168;-77
2022/10/20 01:54:04;;;;;;;0.13;0.13;;;;;;;;;;5007075;28;20518;-78
2022/10/20 01:56:37;;;;;;;0.20;0.20;;;;;;;;;;5004250;28;20266;-77
2022/10/20 01:59:20;;;;;;;0.13;0.13;;;;;;;;;;5007956;28;20197;-80
2022/10/20 02:01:45;;;;;;;0.20;0.20;;;;;;;;;;5008554;28;20258;-78
2022/10/20 02:04:10;;;;;;;0.20;0.20;;;;;;;;;;5008418;28;20262;-78
2022/10/20 02:06:55;;;;;;;3.40;3.10;;;;;;;;;;5012186;28;20640;-78
2022/10/20 02:09:50;;;;;;;0.20;0.20;;;;;;;;;;5010638;28;20211;-78
2022/10/20 02:12:26;;;;;;;0.20;0.20;;;;;;;;;;5013587;28;20311;-77
2022/10/20 02:14:51;;;;;;;0.20;0.20;;;;;;;;;;5012923;28;20250;-76
2022/10/20 02:17:17;;;;;;;0.20;0.20;;;;;;;;;;5010622;28;20277;-79
2022/10/20 02:19:44;;;;;;;0.20;0.20;;;;;;;;;;5023748;28;20176;-78
2022/10/20 02:22:10;;;;;;;0.20;0.20;;;;;;;;;;5008268;28;20218;-78
2022/10/20 02:24:37;;;;;;;0.20;0.20;;;;;;;;;;5011542;28;20258;-78
2022/10/20 02:27:22;;;;;;;0.10;0.10;;;;;;;;;;5023029;28;20200;-79
2022/10/20 02:29:52;;;;;;;0.20;0.20;;;;;;;;;;5008519;28;20211;-78
2022/10/20 02:32:17;;;;;;;0.20;0.20;;;;;;;;;;5010778;28;20180;-77
2022/10/20 02:34:43;;;;;;;0.20;0.20;;;;;;;;;;5006956;28;20182;-79
2022/10/20 02:37:08;;;;;;;0.20;0.20;;;;;;;;;;5009552;28;20195;-78
2022/10/20 02:39:33;;;;;;;0.20;0.20;;;;;;;;;;5009470;28;20186;-78
2022/10/20 02:41:59;;;;;;;0.10;0.10;;;;;;;;;;5008899;28;20183;-78
2022/10/20 02:44:24;;;;;;;0.20;0.20;;;;;;;;;;5011606;28;20943;-78
2022/10/20 02:46:49;;;;;;;0.20;0.20;;;;;;;;;;5009961;28;20758;-78
2022/10/20 02:49:14;;;;;;;0.20;0.20;;;;;;;;;;5006952;28;20636;-77
2022/10/20 02:51:40;;;;;;;0.20;0.20;;;;;;;;;;5007445;28;20195;-78
2022/10/20 02:54:05;;;;;;;0.20;0.20;;;;;;;;;;5005611;28;20187;-79
2022/10/20 02:56:30;;;;;;;0.20;0.20;;;;;;;;;;5009833;28;20175;-78
2022/10/20 02:58:55;;;;;;;0.20;0.20;;;;;;;;;;5009085;28;20188;-77
2022/10/20 03:01:21;;;;;;;0.13;0.13;;;;;;;;;;5010280;28;20185;-77
2022/10/20 03:03:46;;;;;;;0.20;0.20;;;;;;;;;;5008273;28;20186;-77
2022/10/20 03:06:13;;;;;;;0.20;0.20;;;;;;;;;;5006071;28;20183;-77
2022/10/20 03:08:38;;;;;;;0.20;0.20;;;;;;;;;;5004940;28;20283;-78
2022/10/20 03:11:04;;;;;;;0.17;0.17;;;;;;;;;;5019872;28;20294;-81
2022/10/20 03:13:29;;;;;;;0.20;0.20;;;;;;;;;;5010741;28;20605;-81
2022/10/20 03:15:54;;;;;;;0.10;0.10;;;;;;;;;;5010276;28;20183;-79
2022/10/20 03:18:19;;;;;;;0.20;0.20;;;;;;;;;;5008882;28;20183;-81
2022/10/20 03:20:45;;;;;;;0.20;0.20;;;;;;;;;;5008437;28;20326;-80
2022/10/20 03:23:10;;;;;;;0.20;0.20;;;;;;;;;;5009612;28;20178;-78
2022/10/20 03:25:35;;;;;;;0.20;0.20;;;;;;;;;;5006769;28;20190;-79
2022/10/20 03:28:00;;;;;;;0.20;0.20;;;;;;;;;;5008637;28;20196;-80
2022/10/20 03:30:25;;;;;;;0.10;0.10;;;;;;;;;;5009920;28;20195;-80
2022/10/20 03:32:51;;;;;;;0.20;0.20;;;;;;;;;;5006821;28;20174;-79
2022/10/20 03:35:16;;;;;;;0.20;0.20;;;;;;;;;;5009537;28;20242;-79
2022/10/20 03:37:41;;;;;;;0.20;0.20;;;;;;;;;;5005022;28;20748;-78
2022/10/20 03:40:07;;;;;;;0.20;0.20;;;;;;;;;;5010390;28;20553;-80
2022/10/20 03:42:32;;;;;;;0.20;0.20;;;;;;;;;;5005958;28;20388;-80
2022/10/20 03:44:57;;;;;;;0.20;0.20;;;;;;;;;;5011649;28;20172;-80
2022/10/20 03:47:22;;;;;;;0.20;0.20;;;;;;;;;;5007671;28;20202;-79
2022/10/20 03:49:48;;;;;;;0.10;0.10;;;;;;;;;;5007143;28;20905;-79
2022/10/20 03:52:13;;;;;;;0.20;0.20;;;;;;;;;;5005200;28;20199;-80
2022/10/20 03:54:39;;;;;;;0.20;0.20;;;;;;;;;;5020959;28;20266;-79
2022/10/20 03:57:05;;;;;;;0.10;0.10;;;;;;;;;;5005830;28;20695;-78
2022/10/20 03:59:30;;;;;;;0.20;0.20;;;;;;;;;;5008849;28;20188;-79
2022/10/20 04:01:55;;;;;;;0.20;0.20;;;;;;;;;;5010450;28;20536;-77
2022/10/20 04:04:20;;;;;;;0.20;0.20;;;;;;;;;;5008023;28;20171;-78
2022/10/20 04:06:45;;;;;;;0.20;0.20;;;;;;;;;;5005627;28;20191;-77
2022/10/20 04:09:11;;;;;;;0.20;0.20;;;;;;;;;;5022003;28;20612;-79
2022/10/20 04:11:36;;;;;;;0.20;0.20;;;;;;;;;;5007721;28;20774;-77
2022/10/20 04:14:01;;;;;;;0.20;0.20;;;;;;;;;;5005338;28;20226;-77
2022/10/20 04:16:27;;;;;;;0.10;0.10;;;;;;;;;;5008767;28;20270;-78
2022/10/20 04:18:52;;;;;;;0.20;0.20;;;;;;;;;;5008709;28;20547;-77
2022/10/20 04:21:17;;;;;;;0.20;0.20;;;;;;;;;;5006273;28;20175;-77
2022/10/20 04:23:42;;;;;;;0.20;0.20;;;;;;;;;;5008776;28;20184;-78
2022/10/20 04:26:12;;;;;;;0.20;0.20;;;;;;;;;;5006782;28;20213;-77
2022/10/20 04:28:37;;;;;;;0.20;0.20;;;;;;;;;;5007485;28;20214;-77
2022/10/20 04:31:02;;;;;;;0.10;0.10;;;;;;;;;;5006207;28;20207;-77
2022/10/20 04:33:28;;;;;;;0.20;0.20;;;;;;;;;;5006906;28;20180;-77
2022/10/20 04:36:00;;;;;;;0.20;0.20;;;;;;;;;;5008305;28;20168;-77
2022/10/20 04:38:25;;;;;;;0.20;0.20;;;;;;;;;;5004335;28;20196;-77
2022/10/20 04:40:54;;;;;;;0.20;0.20;;;;;;;;;;5006372;28;20278;-78
2022/10/20 04:43:20;;;;;;;0.20;0.20;;;;;;;;;;5004575;28;20229;-78
2022/10/20 04:45:45;;;;;;;0.20;0.20;;;;;;;;;;5005377;28;20271;-78
2022/10/20 04:48:10;;;;;;;0.20;0.20;;;;;;;;;;5006255;28;20233;-78
2022/10/20 04:50:35;;;;;;;0.20;0.20;;;;;;;;;;5006665;28;20227;-76
2022/10/20 04:53:00;;;;;;;0.20;0.20;;;;;;;;;;5007243;28;20184;-76
2022/10/20 04:55:26;;;;;;;0.20;0.20;;;;;;;;;;5008904;28;20777;-76
2022/10/20 04:57:51;;;;;;;0.20;0.20;;;;;;;;;;5000975;28;20192;-75
2022/10/20 05:00:16;;;;;;;0.20;0.20;;;;;;;;;;5004940;28;20273;-78
2022/10/20 05:02:41;;;;;;;0.20;0.20;;;;;;;;;;5010665;28;20187;-79
2022/10/20 05:05:07;;;;;;;0.20;0.20;;;;;;;;;;5009291;28;20191;-78
2022/10/20 05:07:32;;;;;;;0.20;0.20;;;;;;;;;;5008300;28;20261;-77
2022/10/20 05:09:57;;;;;;;0.13;0.13;;;;;;;;;;5005480;28;20206;-78
2022/10/20 05:12:22;;;;;;;0.20;0.20;;;;;;;;;;5005503;28;20266;-78
2022/10/20 05:14:48;;;;;;;0.17;0.17;;;;;;;;;;5008560;28;20667;-79
2022/10/20 05:17:13;;;;;;;0.20;0.20;;;;;;;;;;5003178;28;20195;-78
2022/10/20 05:19:38;;;;;;;0.20;0.20;;;;;;;;;;5008981;28;20258;-78
2022/10/20 05:22:04;;;;;;;0.20;0.20;;;;;;;;;;5007442;28;20513;-76
2022/10/20 05:24:29;;;;;;;0.20;0.20;;;;;;;;;;5007360;28;20545;-77
2022/10/20 05:26:54;;;;;;;0.20;0.20;;;;;;;;;;5020247;28;20191;-76
2022/10/20 05:29:19;;;;;;;0.20;0.20;;;;;;;;;;5005823;28;20218;-76
2022/10/20 05:31:45;;;;;;;0.10;0.10;;;;;;;;;;5005771;28;20203;-76
2022/10/20 05:34:10;;;;;;;0.20;0.20;;;;;;;;;;5008439;28;20226;-78
2022/10/20 05:36:35;;;;;;;0.10;0.10;;;;;;;;;;5009128;28;20198;-77
2022/10/20 05:39:01;;;;;;;0.10;0.10;;;;;;;;;;5009843;28;20635;-78
2022/10/20 05:41:29;;;;;;;0.17;0.17;;;;;;;;;;5011045;28;20234;-78
2022/10/20 05:44:03;;;;;;;0.20;0.20;;;;;;;;;;5012379;28;20289;-78
2022/10/20 05:46:30;;;;;;;0.13;0.13;;;;;;;;;;5007747;28;20179;-79
2022/10/20 05:48:56;;;;;;;0.10;0.10;;;;;;;;;;5020204;28;20191;-76
2022/10/20 05:51:23;;;;;;;0.10;0.10;;;;;;;;;;5010049;28;20215;-76
2022/10/20 05:53:49;;;;;;;0.10;0.10;;;;;;;;;;5010998;28;20179;-75
2022/10/20 05:56:15;;;;;;;0.47;0.47;;;;;;;;;;5009703;28;20184;-76
2022/10/20 05:58:41;;;;;;;0.10;0.10;;;;;;;;;;5008859;28;20214;-75
2022/10/20 06:01:15;;;;;;;0.20;0.20;;;;;;;;;;5010075;28;20650;-74
2022/10/20 06:03:40;;;;;;;0.20;0.20;;;;;;;;;;5007149;28;20183;-75
2022/10/20 06:06:05;;;;;;;0.10;0.10;;;;;;;;;;5008400;28;20179;-77
2022/10/20 06:08:31;;;;;;;0.10;0.10;;;;;;;;;;5010278;28;20206;-76
2022/10/20 06:11:01;;;;;;;0.20;0.20;;;;;;;;;;5014648;28;20203;-76
2022/10/20 06:13:26;;;;;;;0.20;0.20;;;;;;;;;;5009574;28;20254;-75
2022/10/20 06:15:51;;;;;;;0.20;0.20;;;;;;;;;;5013823;28;20175;-75
2022/10/20 06:18:17;;;;;;;0.13;0.13;;;;;;;;;;5010210;28;20798;-75
2022/10/20 06:20:42;;;;;;;0.20;0.20;;;;;;;;;;5011215;28;20186;-76
2022/10/20 06:23:07;;;;;;;0.10;0.10;;;;;;;;;;5008016;28;20180;-75
2022/10/20 06:25:32;;;;;;;0.20;0.20;;;;;;;;;;5009971;28;20183;-77
2022/10/20 06:27:57;;;;;;;0.20;0.20;;;;;;;;;;5006894;28;20213;-76
2022/10/20 06:30:23;;;;;;;0.20;0.20;;;;;;;;;;4995279;28;20195;-75
2022/10/20 06:32:52;;;;;;;0.20;0.20;;;;;;;;;;5003982;28;20179;-75
2022/10/20 06:35:17;;;;;;;0.20;0.20;;;;;;;;;;5008922;28;20205;-76
2022/10/20 06:37:42;;;;;;;0.20;0.20;;;;;;;;;;5006843;28;20199;-76
2022/10/20 06:40:08;;;;;;;0.20;0.20;;;;;;;;;;5010159;28;20186;-75
2022/10/20 06:42:33;;;;;;;0.10;0.10;;;;;;;;;;5008569;28;20283;-75
2022/10/20 06:44:58;;;;;;;0.20;0.20;;;;;;;;;;5022871;28;20195;-75
2022/10/20 06:47:23;;;;;;;0.20;0.20;;;;;;;;;;5006850;28;20275;-75
2022/10/20 06:49:49;;;;;;;0.20;0.20;;;;;;;;;;5007837;28;20262;-75
2022/10/20 06:52:14;;;;;;;0.20;0.20;;;;;;;;;;5000604;28;20179;-75
2022/10/20 06:54:39;;;;;;;0.20;0.20;;;;;;;;;;5005345;28;20190;-75
2022/10/20 06:57:04;;;;;;;0.17;0.17;;;;;;;;;;5005755;28;20205;-75
2022/10/20 06:59:30;;;;;;;0.20;0.20;;;;;;;;;;5003727;28;20245;-76
2022/10/20 07:01:55;;;;;;;0.20;0.20;;;;;;;;;;5004460;28;20839;-75
2022/10/20 07:04:20;;;;;;;0.10;0.10;;;;;;;;;;5006162;28;20187;-76
2022/10/20 07:06:46;;;;;;;0.13;0.13;;;;;;;;;;5007149;28;20198;-75
2022/10/20 07:09:12;;;;;;;0.10;0.10;;;;;;;;;;5005786;28;20182;-76
2022/10/20 07:11:38;;;;;;;0.20;0.20;;;;;;;;;;5004380;28;20880;-76
2022/10/20 07:14:03;;;;;;;0.10;0.10;;;;;;;;;;5005505;28;20187;-74
2022/10/20 07:16:30;;;;;;;0.20;0.20;;;;;;;;;;5005989;28;20187;-76
2022/10/20 07:18:56;;;;;;;0.17;0.17;;;;;;;;;;5003785;28;20554;-75
2022/10/20 07:21:22;;;;;;;0.20;0.20;;;;;;;;;;5003360;28;20183;-75
2022/10/20 07:23:48;;;;;;;0.20;0.20;;;;;;;;;;5001303;28;20187;-77
2022/10/20 07:26:13;;;;;;;0.20;0.20;;;;;;;;;;4998322;28;20194;-76
2022/10/20 07:28:39;;;;;;;0.20;0.20;;;;;;;;;;4996941;28;20246;-77
2022/10/20 07:31:06;;;;;;;0.20;0.20;;;;;;;;;;4998493;28;20211;-76
2022/10/20 07:33:32;;;;;;;0.20;0.20;;;;;;;;;;4996981;28;20261;-75
2022/10/20 07:35:57;;;;;;;0.20;0.20;;;;;;;;;;4998942;28;20716;-76
2022/10/20 07:38:23;;;;;;;0.73;0.73;;;;;;;;;;4996894;28;20245;-76
2022/10/20 07:40:48;;;;;;;0.20;0.20;;;;;;;;;;4997900;28;20589;-76
2022/10/20 07:43:14;;;;;;;0.20;0.20;;;;;;;;;;4996841;28;20256;-76
2022/10/20 07:45:39;;;;;;;0.20;0.20;;;;;;;;;;4998521;28;20320;-75
2022/10/20 07:48:05;;;;;;;0.20;0.20;;;;;;;;;;4997394;28;20467;-75
2022/10/20 07:50:31;;;;;;;0.20;0.20;;;;;;;;;;4996945;28;20226;-75
2022/10/20 07:52:56;;;;;;;0.20;0.20;;;;;;;;;;4997207;28;20218;-78
2022/10/20 07:55:21;;;;;;;0.20;0.20;;;;;;;;;;4997769;28;20163;-75
2022/10/20 07:57:47;;;;;;;0.20;0.20;;;;;;;;;;4997169;28;20195;-75
2022/10/20 08:00:12;;;;;;;0.20;0.20;;;;;;;;;;4994983;28;20199;-75
2022/10/20 08:02:39;;;;;;;0.20;0.20;;;;;;;;;;4998433;28;20180;-75
2022/10/20 08:05:05;;;;;;;0.20;0.20;;;;;;;;;;4998040;28;20576;-75
2022/10/20 08:07:30;;;;;;;0.20;0.20;;;;;;;;;;4996130;28;20207;-75
2022/10/20 08:09:55;;;;;;;0.20;0.20;;;;;;;;;;4997055;28;20679;-75
2022/10/20 08:12:20;;;;;;;0.20;0.20;;;;;;;;;;4996898;28;20168;-76
2022/10/20 08:14:45;;;;;;;0.20;0.20;;;;;;;;;;4997802;28;20194;-75
2022/10/20 08:17:11;;;;;;;0.20;0.20;;;;;;;;;;4997553;28;20195;-76
2022/10/20 08:19:36;;;;;;;0.20;0.20;;;;;;;;;;5000075;28;20180;-75
2022/10/20 08:22:01;;;;;;;0.13;0.13;;;;;;;;;;4995991;28;20221;-76
2022/10/20 08:24:27;;;;;;;0.20;0.20;;;;;;;;;;4995810;28;20179;-76
2022/10/20 08:26:52;;;;;;;0.20;0.20;;;;;;;;;;4996886;28;20279;-76
2022/10/20 08:29:17;;;;;;;0.20;0.20;;;;;;;;;;4997762;28;20211;-74
2022/10/20 08:31:42;;;;;;;0.20;0.20;;;;;;;;;;4997928;28;20191;-75
2022/10/20 08:34:08;;;;;;;0.20;0.20;;;;;;;;;;4995523;28;20230;-76
2022/10/20 08:36:33;;;;;;;0.17;0.17;;;;;;;;;;4996501;28;20188;-75
2022/10/20 08:38:58;;;;;;;0.20;0.20;;;;;;;;;;4995927;28;20187;-76
2022/10/20 08:41:25;;;;;;;1.60;1.53;;;;;;;;;;4997453;28;20183;-75
2022/10/20 08:43:51;;;;;;;0.20;0.20;;;;;;;;;;5012262;28;20634;-75
2022/10/20 08:46:18;;;;;;;0.20;0.20;;;;;;;;;;5011629;28;20218;-75
2022/10/20 08:48:44;;;;;;;0.20;0.20;;;;;;;;;;4990754;28;20299;-76
2022/10/20 08:51:21;;;;;;;2.20;2.10;;;;;;;;;;4968778;28;20211;-76
2022/10/20 08:53:48;;;;;;;0.30;0.30;;;;;;;;;;4968670;28;20190;-75
2022/10/20 08:56:14;;;;;;;0.50;0.50;;;;;;;;;;4968792;28;20191;-75
2022/10/20 08:58:43;;;;;;;0.20;0.20;;;;;;;;;;4969192;28;20702;-75
2022/10/20 09:01:31;;;;;;;0.37;0.37;;;;;;;;;;4969215;28;20176;-76
2022/10/20 09:03:58;;;;;;;0.20;0.20;;;;;;;;;;4969390;28;20572;-75
2022/10/20 09:06:23;;;;;;;0.20;0.20;;;;;;;;;;4967812;28;20661;-77
2022/10/20 09:08:49;;;;;;;0.20;0.20;;;;;;;;;;4968891;28;20690;-75
2022/10/20 09:11:19;;;;;;;0.20;0.20;;;;;;;;;;4969223;28;20960;-75
2022/10/20 09:13:45;;;;;;;0.27;0.27;;;;;;;;;;4983579;28;20190;-75
2022/10/20 09:16:12;;;;;;;0.20;0.20;;;;;;;;;;4969176;28;20814;-77
2022/10/20 09:18:38;;;;;;;0.20;0.20;;;;;;;;;;4967514;28;20227;-75
2022/10/20 09:21:03;;;;;;;0.83;0.83;;;;;;;;;;4968558;28;20278;-75
2022/10/20 09:23:33;;;;;;;0.20;0.20;;;;;;;;;;4983707;28;20187;-75
2022/10/20 09:25:58;;;;;;;0.20;0.20;;;;;;;;;;4968087;28;20192;-76
2022/10/20 09:28:25;;;;;;;0.20;0.20;;;;;;;;;;4967645;28;20285;-76
2022/10/20 09:30:51;;;;;;;0.20;0.20;;;;;;;;;;4967375;28;20211;-76
2022/10/20 09:33:30;;;;;;;0.20;0.20;;;;;;;;;;4967196;28;20533;-75
2022/10/20 09:36:13;;;;;;;0.27;0.27;;;;;;;;;;4969700;28;20198;-76
2022/10/20 09:38:42;;;;;;;0.20;0.20;;;;;;;;;;4968863;28;20206;-76
2022/10/20 09:41:12;;;;;;;0.20;0.20;;;;;;;;;;4966978;28;20203;-75
2022/10/20 09:43:47;;;;;;;0.20;0.20;;;;;;;;;;4968580;28;20278;-76
2022/10/20 09:46:16;;;;;;;0.20;0.20;;;;;;;;;;4968386;28;20866;-76
2022/10/20 09:48:48;;;;;;;0.20;0.20;;;;;;;;;;4967590;28;20245;-76
2022/10/20 09:51:15;;;;;;;0.20;0.20;;;;;;;;;;4966953;28;20210;-77
2022/10/20 09:53:51;;;;;;;0.20;0.20;;;;;;;;;;4968989;28;20188;-76
2022/10/20 09:56:27;;;;;;;0.20;0.20;;;;;;;;;;4968489;28;20280;-75
2022/10/20 09:58:53;;;;;;;0.20;0.20;;;;;;;;;;4968649;28;20194;-76
2022/10/20 10:01:18;;;;;;;0.20;0.20;;;;;;;;;;4966136;28;20196;-77
2022/10/20 10:03:45;;;;;;;0.20;0.20;;;;;;;;;;4968531;28;20195;-76
2022/10/20 10:06:19;;;;;;;0.30;0.30;;;;;;;;;;4966546;28;20382;-76
2022/10/20 10:08:45;;;;;;;0.20;0.20;;;;;;;;;;4967175;28;20320;-76
2022/10/20 10:11:17;;;;;;;0.20;0.20;;;;;;;;;;4967547;28;20215;-76
2022/10/20 10:13:43;;;;;;;10.17;9.30;;;;;;;;;;4966715;28;20252;-77
2022/10/20 10:16:09;;;;;;;0.30;0.30;;;;;;;;;;4966714;28;20617;-76
2022/10/20 10:18:36;;;;;;;0.20;0.20;;;;;;;;;;4967102;28;20317;-76
2022/10/20 10:21:03;;;;;;;0.30;0.30;;;;;;;;;;4970889;28;20826;-76
2022/10/20 10:23:30;;;;;;;0.20;0.20;;;;;;;;;;4969336;28;20194;-76
2022/10/20 10:25:55;;;;;;;0.30;0.30;;;;;;;;;;4967670;28;20195;-76
2022/10/20 10:28:30;;;;;;;0.23;0.23;;;;;;;;;;4969057;28;20765;-76
2022/10/20 10:31:08;;;;;;;0.20;0.20;;;;;;;;;;4970034;28;20206;-76
2022/10/20 10:33:33;;;;;;;0.30;0.30;;;;;;;;;;4968072;28;20183;-76
2022/10/20 10:36:01;;;;;;;0.20;0.20;;;;;;;;;;4961116;28;20179;-76
2022/10/20 10:38:27;;;;;;;0.27;0.27;;;;;;;;;;4944125;28;20300;-78
2022/10/20 10:41:11;;;;;;;0.20;0.20;;;;;;;;;;4945056;28;20245;-80
2022/10/20 10:43:42;;;;;;;0.30;0.30;;;;;;;;;;4945500;28;20180;-77
2022/10/20 10:46:11;;;;;;;0.20;0.20;;;;;;;;;;4945254;28;20242;-76
2022/10/20 10:48:52;;;;;;;0.20;0.20;;;;;;;;;;4962559;28;20215;-76
2022/10/20 10:51:20;;;;;;;0.20;0.20;;;;;;;;;;4945007;28;20241;-76
2022/10/20 10:53:45;;;;;;;0.40;0.40;;;;;;;;;;4943295;28;20554;-76
2022/10/20 10:56:29;;;;;;;0.20;0.20;;;;;;;;;;4915762;28;20760;-76
2022/10/20 10:59:04;;;;;;;0.20;0.20;;;;;;;;;;4923652;28;20191;-76
2022/10/20 11:01:48;;;;;;;0.20;0.20;;;;;;;;;;4923010;28;20194;-76
2022/10/20 11:04:13;;;;;;;0.20;0.20;;;;;;;;;;4922490;28;20187;-75
2022/10/20 11:06:43;;;;;;;0.33;0.33;;;;;;;;;;4924475;28;20328;-77
2022/10/20 11:09:11;;;;;;;0.20;0.20;;;;;;;;;;4924201;28;20282;-77
2022/10/20 11:11:46;;;;;;;0.20;0.20;;;;;;;;;;4924839;28;20871;-76
2022/10/20 11:14:17;;;;;;;0.20;0.20;;;;;;;;;;4923705;28;20727;-76
2022/10/20 11:16:51;;;;;;;0.20;0.20;;;;;;;;;;4923077;28;20731;-76
2022/10/20 11:19:16;;;;;;;0.20;0.20;;;;;;;;;;4923855;28;20188;-76
2022/10/20 11:21:48;;;;;;;0.43;0.43;;;;;;;;;;4923522;28;21111;-76
2022/10/20 11:24:22;;;;;;;0.20;0.20;;;;;;;;;;4921570;28;20186;-76
2022/10/20 11:26:53;;;;;;;0.30;0.30;;;;;;;;;;4921037;28;20752;-76
2022/10/20 11:29:26;;;;;;;0.30;0.30;;;;;;;;;;4937468;28;20211;-77
2022/10/20 11:32:02;;;;;;;0.27;0.27;;;;;;;;;;4923427;28;20567;-75
2022/10/20 11:34:33;;;;;;;0.20;0.20;;;;;;;;;;4923339;28;20190;-76
2022/10/20 11:37:21;;;;;;;0.27;0.27;;;;;;;;;;4922568;28;20253;-74
2022/10/20 11:39:56;;;;;;;0.20;0.20;;;;;;;;;;4931321;28;20278;-75
2022/10/20 11:42:28;;;;;;;0.20;0.20;;;;;;;;;;4922659;28;20262;-75
2022/10/20 11:44:55;;;;;;;0.30;0.30;;;;;;;;;;4923390;28;20195;-75
2022/10/20 11:47:33;;;;;;;0.20;0.20;;;;;;;;;;4922435;28;20211;-76
2022/10/20 11:49:59;;;;;;;0.20;0.20;;;;;;;;;;4923547;28;20290;-75
2022/10/20 11:52:27;;;;;;;0.30;0.30;;;;;;;;;;4923720;28;20176;-75
2022/10/20 11:55:01;;;;;;;0.30;0.30;;;;;;;;;;4923426;28;20183;-76
2022/10/20 11:57:32;;;;;;;0.50;0.50;;;;;;;;;;4922314;28;20280;-76
2022/10/20 12:00:16;;;;;;;0.37;0.37;;;;;;;;;;4922815;28;20286;-75
2022/10/20 12:02:44;;;;;;;0.37;0.37;;;;;;;;;;4923435;28;20179;-76
2022/10/20 12:05:09;;;;;;;0.30;0.30;;;;;;;;;;4923384;28;20194;-76
2022/10/20 12:07:53;;;;;;;0.30;0.30;;;;;;;;;;4921912;28;20773;-76
2022/10/20 12:10:33;;;;;;;0.30;0.30;;;;;;;;;;4924599;28;21135;-79
2022/10/20 12:13:23;;;;;;;0.30;0.30;;;;;;;;;;4924478;28;20179;-76
2022/10/20 12:15:50;;;;;;;0.30;0.30;;;;;;;;;;4924580;28;20183;-74
2022/10/20 12:18:23;;;;;;;0.20;0.20;;;;;;;;;;4923682;28;20227;-76
2022/10/20 12:20:49;;;;;;;0.22;0.22;;;;;;;;;;4923630;28;20191;-76
2022/10/20 12:23:34;;;;;;;0.57;0.57;;;;;;;;;;4923354;28;20198;-78
2022/10/20 12:25:59;;;;;;;0.30;0.30;;;;;;;;;;4924153;28;20633;-78
2022/10/20 12:28:26;;;;;;;0.30;0.30;;;;;;;;;;4923132;28;20206;-77
2022/10/20 12:30:57;;;;;;;0.30;0.30;;;;;;;;;;4923475;28;20698;-75
2022/10/20 12:33:41;;;;;;;0.30;0.30;;;;;;;;;;4923104;28;20317;-75
2022/10/20 12:36:21;;;;;;;0.30;0.30;;;;;;;;;;4938897;28;20662;-78
2022/10/20 12:38:47;;;;;;;0.20;0.20;;;;;;;;;;4920168;28;20655;-77
2022/10/20 12:41:24;;;;;;;0.30;0.30;;;;;;;;;;4894738;28;20183;-77
2022/10/20 12:43:53;;;;;;;0.20;0.20;;;;;;;;;;4896309;28;20201;-77
2022/10/20 12:46:25;;;;;;;0.60;0.60;;;;;;;;;;4897095;28;20917;-77
2022/10/20 12:48:55;;;;;;;0.30;0.30;;;;;;;;;;4898538;28;20184;-77
2022/10/20 12:51:23;;;;;;;0.30;0.30;;;;;;;;;;4897267;28;20250;-76
2022/10/20 12:54:12;;;;;;;0.30;0.30;;;;;;;;;;4897373;28;21641;-77
2022/10/20 12:56:38;;;;;;;0.30;0.30;;;;;;;;;;4898330;28;20225;-77
2022/10/20 12:59:22;;;;;;;0.30;0.30;;;;;;;;;;4911628;28;20746;-77
2022/10/20 13:02:06;;;;;;;0.30;0.30;;;;;;;;;;4898327;28;20179;-76
2022/10/20 13:04:50;;;;;;;0.30;0.30;;;;;;;;;;4912424;28;21128;-76
2022/10/20 13:07:35;;;;;;;0.20;0.20;;;;;;;;;;4897374;28;20207;-77
2022/10/20 13:10:01;;;;;;;0.30;0.30;;;;;;;;;;4898776;28;20179;-76
2022/10/20 13:12:28;;;;;;;0.32;0.32;;;;;;;;;;4898284;28;20688;-77
2022/10/20 13:14:54;;;;;;;0.20;0.20;;;;;;;;;;4899384;28;20672;-77
2022/10/20 13:17:33;;;;;;;0.20;0.20;;;;;;;;;;4898137;28;20450;-77
2022/10/20 13:20:00;;;;;;;0.30;0.30;;;;;;;;;;4899719;28;21282;-77
2022/10/20 13:22:58;;;;;;;0.20;0.20;;;;;;;;;;4898123;28;20572;-76
2022/10/20 13:25:30;;;;;;;7.33;4.07;;;;;;;;;;4898787;28;21041;-77
2022/10/20 13:28:13;;;;;;;0.20;0.20;;;;;;;;;;4912053;28;20199;-76
2022/10/20 13:30:59;;;;;;;0.30;0.30;;;;;;;;;;4898106;28;20696;-76
2022/10/20 13:33:37;;;;;;;0.40;0.40;;;;;;;;;;4906122;28;20198;-76
2022/10/20 13:36:21;;;;;;;0.20;0.20;;;;;;;;;;4920309;28;20187;-76
2022/10/20 13:38:51;;;;;;;0.50;0.50;;;;;;;;;;4937122;28;20193;-77
2022/10/20 13:41:32;;;;;;;0.30;0.30;;;;;;;;;;4921638;28;21027;-76
2022/10/20 13:44:09;;;;;;;0.30;0.30;;;;;;;;;;4936337;28;20568;-76
2022/10/20 13:46:43;;;;;;;0.30;0.30;;;;;;;;;;4921236;28;20626;-78
2022/10/20 13:49:27;;;;;;;0.27;0.27;;;;;;;;;;4936206;28;20683;-76
2022/10/20 13:51:56;;;;;;;0.20;0.20;;;;;;;;;;4921250;28;20927;-77
2022/10/20 13:54:32;;;;;;;0.30;0.30;;;;;;;;;;4937595;28;20246;-77
2022/10/20 13:56:58;;;;;;;0.30;0.30;;;;;;;;;;4925866;28;20207;-76
2022/10/20 13:59:25;;;;;;;0.20;0.20;;;;;;;;;;4925392;28;20207;-77
2022/10/20 14:01:52;;;;;;;0.30;0.30;;;;;;;;;;4926466;28;20195;-76
2022/10/20 14:04:24;;;;;;;0.30;0.30;;;;;;;;;;4923723;28;20282;-75
2022/10/20 14:06:49;;;;;;;0.30;0.30;;;;;;;;;;4922677;28;21110;-77
2022/10/20 14:09:15;;;;;;;0.30;0.30;;;;;;;;;;4924520;28;20186;-77
2022/10/20 14:11:42;;;;;;;0.30;0.30;;;;;;;;;;4926115;28;20222;-76
2022/10/20 14:14:11;;;;;;;0.20;0.20;;;;;;;;;;4925082;28;20195;-76
2022/10/20 14:16:38;;;;;;;0.30;0.30;;;;;;;;;;4923061;28;20187;-77
2022/10/20 14:19:03;;;;;;;0.30;0.30;;;;;;;;;;4924807;28;20186;-77
2022/10/20 14:21:29;;;;;;;0.30;0.30;;;;;;;;;;4924582;28;20238;-77
2022/10/20 14:23:59;;;;;;;0.20;0.20;;;;;;;;;;4926584;28;20309;-76
2022/10/20 14:26:25;;;;;;;0.30;0.30;;;;;;;;;;4923503;28;20183;-77
2022/10/20 14:28:50;;;;;;;0.20;0.20;;;;;;;;;;4923477;28;20187;-77
2022/10/20 14:31:19;;;;;;;0.30;0.30;;;;;;;;;;4924526;28;20199;-75
2022/10/20 14:33:45;;;;;;;0.30;0.30;;;;;;;;;;4924651;28;20186;-76
2022/10/20 14:36:19;;;;;;;0.20;0.20;;;;;;;;;;4939354;28;20188;-76
2022/10/20 14:38:46;;;;;;;0.30;0.30;;;;;;;;;;4924095;28;21151;-77
2022/10/20 14:41:21;;;;;;;0.30;0.30;;;;;;;;;;4924498;28;20186;-76
2022/10/20 14:43:49;;;;;;;0.30;0.30;;;;;;;;;;4924252;28;20711;-77
2022/10/20 14:46:22;;;;;;;0.30;0.30;;;;;;;;;;4925043;28;20901;-76
2022/10/20 14:48:49;;;;;;;0.30;0.30;;;;;;;;;;4998195;28;20184;-76
2022/10/20 14:51:34;;;;;;;0.30;0.30;;;;;;;;;;5005139;28;20226;-76
2022/10/20 14:54:32;;;;;;;0.30;0.30;;;;;;;;;;5005524;28;20552;-76